Time;durP1;ratioP1;P1;durP2;ratioP2;P2;SDS_P1;SDS_P2;PMS_P1;PMS_P2;Temp;Humidity;BMP_temperature;BMP_pressure;BME280_temperature;BME280_humidity;BME280_pressure;Samples;Min_cycle;Max_cycle;Signal;HPM_P1;HPM_P2
2022/10/03 00:00:16;;;;;;;;;;;;;;;13.56;64.88;95335.44;5112114;28;1104;-66
2022/10/03 00:02:51;;;;;;;;;;;;;;;13.57;64.88;95337.94;5113352;28;1132;-67
2022/10/03 00:05:17;;;;;;;;;;;;;;;13.56;64.74;95330.06;5114062;28;1063;-66
2022/10/03 00:07:57;;;;;;;;;;;;;;;13.52;64.96;95332.25;5097462;28;1273;-67
2022/10/03 00:10:42;;;;;;;;;;;;;;;13.50;65.44;95326.22;5095560;28;945;-67
2022/10/03 00:13:28;;;;;;;;;;;;;;;13.53;64.91;95327.75;5096625;28;1616;-67
2022/10/03 00:16:14;;;;;;;;;;;;;;;13.53;64.57;95312.44;5095232;28;1431;-67
2022/10/03 00:18:54;;;;;;;;;;;;;;;13.53;64.71;95303.56;5078276;28;1910;-67
2022/10/03 00:21:41;;;;;;;;;;;;;;;13.39;65.31;95295.22;5096316;28;1057;-65
2022/10/03 00:24:13;;;;;;;;;;;;;;;13.36;65.18;95292.88;5096189;28;1101;-67
2022/10/03 00:26:48;;;;;;;;;;;;;;;13.40;64.92;95293.38;5096061;28;1024;-67
2022/10/03 00:29:31;;;;;;;;;;;;;;;13.34;65.44;95280.66;5096146;28;1056;-67
2022/10/03 00:32:07;;;;;;;;;;;;;;;13.40;64.54;95282.63;5096220;28;1028;-66
2022/10/03 00:34:56;;;;;;;;;;;;;;;13.32;65.28;95279.97;5095082;28;1490;-67
2022/10/03 00:37:33;;;;;;;;;;;;;;;13.26;65.51;95287.69;5091968;28;1917;-67
2022/10/03 00:40:19;;;;;;;;;;;;;;;13.22;65.30;95291.75;5094628;28;1417;-67
2022/10/03 00:43:04;;;;;;;;;;;;;;;13.16;66.14;95284.38;5095954;28;1629;-67
2022/10/03 00:45:39;;;;;;;;;;;;;;;13.23;65.09;95271.09;5095725;28;1435;-67
2022/10/03 00:48:12;;;;;;;;;;;;;;;13.19;65.23;95280.53;5094781;28;1467;-67
2022/10/03 00:51:02;;;;;;;;;;;;;;;13.16;65.01;95275.47;5095834;28;1664;-67
2022/10/03 00:53:47;;;;;;;;;;;;;;;13.20;64.99;95266.94;5094433;28;1137;-67
2022/10/03 00:56:25;;;;;;;;;;;;;;;13.21;64.19;95263.22;5095573;28;1112;-67
2022/10/03 00:59:06;;;;;;;;;;;;;;;13.18;64.54;95271.59;5094253;28;2003;-67
2022/10/03 01:01:36;;;;;;;;;;;;;;;13.11;64.29;95259.91;5094376;28;1108;-67
2022/10/03 01:04:22;;;;;;;;;;;;;;;12.97;64.56;95256.09;5094279;28;1056;-67
2022/10/03 01:06:56;;;;;;;;;;;;;;;13.00;65.49;95253.06;5104437;28;1251;-67
2022/10/03 01:09:30;;;;;;;;;;;;;;;13.02;65.27;95250.22;5114384;28;1549;-67
2022/10/03 01:12:10;;;;;;;;;;;;;;;13.05;65.08;95250.72;5114659;28;1649;-67
2022/10/03 01:14:51;;;;;;;;;;;;;;;13.08;64.67;95241.47;5115837;28;1522;-67
2022/10/03 01:17:36;;;;;;;;;;;;;;;13.06;64.90;95228.22;5114494;28;1071;-67
2022/10/03 01:20:15;;;;;;;;;;;;;;;12.91;65.38;95237.16;5114217;28;1541;-67
2022/10/03 01:22:42;;;;;;;;;;;;;;;12.92;64.91;95234.31;5115359;28;1033;-67
2022/10/03 01:25:27;;;;;;;;;;;;;;;12.89;65.30;95234.66;5114456;28;1648;-67
2022/10/03 01:30:43;;;;;;;;;;;;;;;12.97;65.36;95225.75;5115199;28;1115;-67
2022/10/03 01:33:17;;;;;;;;;;;;;;;12.87;66.19;95225.94;5114123;28;1040;-67
2022/10/03 01:35:44;;;;;;;;;;;;;;;12.83;66.69;95227.31;5115030;28;1124;-67
2022/10/03 01:38:24;;;;;;;;;;;;;;;12.88;65.75;95222.22;5115356;28;1988;-67
2022/10/03 01:40:56;;;;;;;;;;;;;;;12.79;65.61;95223.31;5114038;28;1510;-67
2022/10/03 01:43:22;;;;;;;;;;;;;;;12.71;66.64;95221.47;5115163;28;1226;-67
2022/10/03 01:46:03;;;;;;;;;;;;;;;12.72;66.37;95219.63;5114889;28;1116;-67
2022/10/03 01:48:42;;;;;;;;;;;;;;;12.73;67.27;95221.28;5115221;28;961;-67
2022/10/03 01:51:10;;;;;;;;;;;;;;;12.83;66.90;95219.25;5115193;28;1092;-68
2022/10/03 01:53:47;;;;;;;;;;;;;;;12.81;67.03;95226.66;5114862;28;1100;-67
2022/10/03 01:56:26;;;;;;;;;;;;;;;12.73;67.48;95224.84;5114825;28;1107;-67
2022/10/03 01:59:06;;;;;;;;;;;;;;;12.82;67.55;95223.75;5114662;28;1985;-67
2022/10/03 02:01:39;;;;;;;;;;;;;;;12.85;66.85;95227.97;5114771;28;1123;-67
2022/10/03 02:04:29;;;;;;;;;;;;;;;12.79;67.15;95225.97;5114978;28;1625;-67
2022/10/03 02:06:59;;;;;;;;;;;;;;;12.78;67.04;95225.13;5102946;28;1224;-68
2022/10/03 02:09:44;;;;;;;;;;;;;;;12.79;66.82;95207.19;5094105;28;1373;-68
2022/10/03 02:12:22;;;;;;;;;;;;;;;12.83;66.85;95211.22;5094157;28;1123;-68
2022/10/03 02:14:59;;;;;;;;;;;;;;;12.85;67.18;95203.81;5092931;28;1079;-68
2022/10/03 02:17:29;;;;;;;;;;;;;;;12.86;67.23;95214.38;5093963;28;1913;-67
2022/10/03 02:20:06;;;;;;;;;;;;;;;12.93;66.76;95219.88;5093951;28;1072;-67
2022/10/03 02:22:49;;;;;;;;;;;;;;;12.91;66.42;95211.16;5094020;28;1119;-67
2022/10/03 02:25:19;;;;;;;;;;;;;;;12.94;66.70;95212.66;5093994;28;1065;-68
2022/10/03 02:28:04;;;;;;;;;;;;;;;12.98;66.87;95217.50;5093454;28;1037;-68
2022/10/03 02:30:50;;;;;;;;;;;;;;;12.96;66.72;95216.84;5092930;28;1392;-67
2022/10/03 02:33:16;;;;;;;;;;;;;;;12.98;66.92;95219.38;5092546;28;1659;-68
2022/10/03 02:35:49;;;;;;;;;;;;;;;12.97;66.42;95221.19;5092750;28;1440;-67
2022/10/03 02:38:29;;;;;;;;;;;;;;;12.94;66.74;95215.34;5093691;28;2009;-67
2022/10/03 02:41:14;;;;;;;;;;;;;;;12.92;66.81;95202.13;5093646;28;1088;-67
2022/10/03 02:44:07;;;;;;;;;;;;;;;12.89;68.00;95205.13;5093596;28;1068;-67
2022/10/03 02:46:53;;;;;;;;;;;;;;;12.85;67.79;95206.50;5093902;28;1505;-67
2022/10/03 02:49:34;;;;;;;;;;;;;;;12.85;67.83;95201.13;5093818;28;1643;-67
2022/10/03 02:52:17;;;;;;;;;;;;;;;12.91;67.50;95200.44;5093795;28;1045;-67
2022/10/03 02:54:43;;;;;;;;;;;;;;;12.94;67.93;95194.72;5093437;28;1112;-68
2022/10/03 02:57:10;;;;;;;;;;;;;;;12.92;67.65;95195.88;5092504;28;1645;-68
2022/10/03 02:59:41;;;;;;;;;;;;;;;12.92;67.81;95194.06;5093309;28;1906;-67
2022/10/03 03:02:13;;;;;;;;;;;;;;;12.89;68.82;95186.34;5092513;28;1455;-68
2022/10/03 03:04:52;;;;;;;;;;;;;;;12.89;68.48;95181.00;5093328;28;1136;-67
2022/10/03 03:07:31;;;;;;;;;;;;;;;12.97;68.03;95197.03;5107598;28;1260;-68
2022/10/03 03:10:00;;;;;;;;;;;;;;;12.92;68.31;95185.16;5113638;28;1089;-68
2022/10/03 03:12:44;;;;;;;;;;;;;;;12.91;68.14;95178.13;5113941;28;1120;-67
2022/10/03 03:15:30;;;;;;;;;;;;;;;12.89;68.48;95181.81;5112737;28;1149;-67
2022/10/03 03:18:15;;;;;;;;;;;;;;;12.86;68.75;95192.91;5112458;28;1995;-67
2022/10/03 03:20:57;;;;;;;;;;;;;;;12.90;68.56;95193.41;5112206;28;1515;-67
2022/10/03 03:23:24;;;;;;;;;;;;;;;12.91;68.64;95186.19;5112785;28;1491;-67
2022/10/03 03:25:56;;;;;;;;;;;;;;;12.96;68.25;95191.88;5113780;28;1652;-67
2022/10/03 03:28:32;;;;;;;;;;;;;;;12.97;68.64;95180.94;5113589;28;1115;-67
2022/10/03 03:31:08;;;;;;;;;;;;;;;12.95;68.88;95182.97;5113504;28;1040;-67
2022/10/03 03:33:42;;;;;;;;;;;;;;;12.94;69.15;95188.50;5113516;28;1064;-65
2022/10/03 03:36:09;;;;;;;;;;;;;;;12.98;69.15;95181.81;5113525;28;1095;-66
2022/10/03 03:38:38;;;;;;;;;;;;;;;12.89;69.86;95186.34;5113371;28;1914;-68
2022/10/03 03:41:14;;;;;;;;;;;;;;;12.87;69.36;95180.31;5115603;28;985;-68
2022/10/03 03:43:40;;;;;;;;;;;;;;;12.92;69.31;95180.66;5117300;28;1116;-68
2022/10/03 03:46:09;;;;;;;;;;;;;;;12.95;69.40;95185.66;5116125;28;1259;-68
2022/10/03 03:48:39;;;;;;;;;;;;;;;12.97;69.09;95180.94;5117207;28;1115;-70
2022/10/03 03:51:16;;;;;;;;;;;;;;;12.98;69.04;95179.94;5099520;28;1518;-65
2022/10/03 03:53:49;;;;;;;;;;;;;;;12.88;69.70;95182.84;5117343;28;1683;-67
2022/10/03 03:56:41;;;;;;;;;;;;;;;12.93;69.52;95182.31;5117266;28;1060;-68
2022/10/03 03:59:26;;;;;;;;;;;;;;;12.91;69.56;95184.34;5115754;28;1909;-66
2022/10/03 04:02:11;;;;;;;;;;;;;;;12.97;69.84;95183.63;5115843;28;953;-67
2022/10/03 04:04:50;;;;;;;;;;;;;;;12.99;69.47;95184.28;5116857;28;1037;-66
2022/10/03 04:07:26;;;;;;;;;;;;;;;12.98;69.50;95177.25;5102767;28;1310;-68
2022/10/03 04:10:11;;;;;;;;;;;;;;;12.94;69.74;95173.25;5095513;28;1566;-66
2022/10/03 04:12:56;;;;;;;;;;;;;;;12.93;70.13;95168.88;5096344;28;992;-66
2022/10/03 04:15:23;;;;;;;;;;;;;;;13.02;69.78;95167.00;5095476;28;1698;-67
2022/10/03 04:20:49;;;;;;;;;;;;;;;12.89;70.46;95175.63;5096235;28;1040;-67
2022/10/03 04:23:24;;;;;;;;;;;;;;;12.88;70.31;95171.25;5096502;28;1084;-67
2022/10/03 04:26:09;;;;;;;;;;;;;;;12.88;71.10;95169.44;5095120;28;1025;-67
2022/10/03 04:28:54;;;;;;;;;;;;;;;12.93;70.93;95160.84;5096062;28;1040;-68
2022/10/03 04:31:37;;;;;;;;;;;;;;;12.89;70.92;95164.88;5095991;28;1090;-67
2022/10/03 04:34:04;;;;;;;;;;;;;;;12.92;71.17;95169.91;5096082;28;1044;-67
2022/10/03 04:36:36;;;;;;;;;;;;;;;13.02;70.87;95175.06;5095036;28;1435;-67
2022/10/03 04:39:17;;;;;;;;;;;;;;;13.01;70.33;95184.97;5096347;28;1994;-67
2022/10/03 04:41:48;;;;;;;;;;;;;;;12.98;70.29;95185.31;5095698;28;1163;-67
2022/10/03 04:44:26;;;;;;;;;;;;;;;13.00;70.43;95182.47;5095800;28;1053;-68
2022/10/03 04:47:05;;;;;;;;;;;;;;;12.99;70.05;95186.97;5078012;28;1590;-67
2022/10/03 04:49:37;;;;;;;;;;;;;;;12.92;69.92;95183.34;5078016;28;1439;-67
2022/10/03 04:52:24;;;;;;;;;;;;;;;12.84;70.06;95194.94;5095394;28;1135;-65
2022/10/03 04:54:58;;;;;;;;;;;;;;;12.75;70.80;95189.75;5095729;28;965;-67
2022/10/03 04:57:29;;;;;;;;;;;;;;;12.77;71.21;95198.50;5095772;28;1008;-67
2022/10/03 05:00:02;;;;;;;;;;;;;;;12.84;70.84;95194.09;5094328;28;1580;-67
2022/10/03 05:02:52;;;;;;;;;;;;;;;12.85;71.25;95198.44;5095555;28;1029;-67
2022/10/03 05:05:31;;;;;;;;;;;;;;;12.82;71.38;95199.63;5094557;28;1459;-66
2022/10/03 05:08:16;;;;;;;;;;;;;;;12.92;70.77;95204.81;5115160;28;1663;-66
2022/10/03 05:10:43;;;;;;;;;;;;;;;12.94;70.92;95199.25;5114637;28;957;-66
2022/10/03 05:13:15;;;;;;;;;;;;;;;12.95;70.86;95195.56;5115668;27;1107;-66
2022/10/03 05:15:54;;;;;;;;;;;;;;;13.01;71.63;95194.84;5115850;28;1012;-67
2022/10/03 05:18:20;;;;;;;;;;;;;;;13.00;70.91;95191.34;5115742;28;1950;-67
2022/10/03 05:20:52;;;;;;;;;;;;;;;13.03;71.15;95192.81;5115593;28;1020;-67
2022/10/03 05:23:30;;;;;;;;;;;;;;;13.09;71.34;95192.16;5114597;28;1513;-67
2022/10/03 05:26:01;;;;;;;;;;;;;;;13.08;71.00;95191.28;5115645;28;1060;-67
2022/10/03 05:28:35;;;;;;;;;;;;;;;13.11;71.46;95189.25;5115435;28;1124;-66
2022/10/03 05:31:06;;;;;;;;;;;;;;;13.16;71.75;95192.25;5114287;28;1437;-67
2022/10/03 05:33:52;;;;;;;;;;;;;;;13.14;70.94;95186.22;5115428;28;1052;-66
2022/10/03 05:36:28;;;;;;;;;;;;;;;13.21;71.24;95196.09;5115202;28;1122;-67
2022/10/03 05:39:14;;;;;;;;;;;;;;;13.24;70.59;95189.53;5115311;28;1917;-67
2022/10/03 05:41:49;;;;;;;;;;;;;;;13.26;70.80;95192.88;5113984;28;1040;-66
2022/10/03 05:44:18;;;;;;;;;;;;;;;13.24;71.23;95179.66;5113998;28;1022;-67
2022/10/03 05:46:47;;;;;;;;;;;;;;;13.29;71.51;95182.63;5114928;28;1143;-67
2022/10/03 05:49:22;;;;;;;;;;;;;;;13.38;71.60;95185.31;5113892;28;1092;-67
2022/10/03 05:52:12;;;;;;;;;;;;;;;13.46;71.26;95196.81;5113799;28;1048;-67
2022/10/03 05:54:46;;;;;;;;;;;;;;;13.42;71.64;95187.44;5094654;28;1267;-67
2022/10/03 05:57:25;;;;;;;;;;;;;;;13.40;71.62;95197.53;5114867;28;952;-67
2022/10/03 06:00:00;;;;;;;;;;;;;;;13.48;71.94;95188.56;5114641;28;1964;-67
2022/10/03 06:02:45;;;;;;;;;;;;;;;13.50;72.07;95188.41;5114422;28;1102;-66
2022/10/03 06:05:38;;;;;;;;;;;;;;;13.30;71.44;95178.13;5114644;28;1057;-67
2022/10/03 06:08:38;;;;;;;;;;;;;;;13.29;72.29;95182.63;5093663;28;1452;-67
2022/10/03 06:11:23;;;;;;;;;;;;;;;13.41;72.64;95193.84;5094514;28;1613;-68
2022/10/03 06:14:08;;;;;;;;;;;;;;;13.44;71.86;95190.78;5092788;28;1053;-67
2022/10/03 06:16:54;;;;;;;;;;;;;;;13.48;72.74;95197.47;5094091;28;1021;-67
2022/10/03 06:19:47;;;;;;;;;;;;;;;13.62;72.19;95200.41;5092782;28;1917;-67
2022/10/03 06:22:17;;;;;;;;;;;;;;;13.62;72.75;95190.50;5094010;28;1061;-67
2022/10/03 06:25:02;;;;;;;;;;;;;;;13.62;72.53;95178.91;5092775;28;1061;-67
2022/10/03 06:27:47;;;;;;;;;;;;;;;13.66;71.77;95191.00;5092899;28;1048;-68
2022/10/03 06:30:14;;;;;;;;;;;;;;;13.72;72.97;95203.69;5093932;28;1143;-67
2022/10/03 06:32:59;;;;;;;;;;;;;;;13.71;72.54;95188.56;5092459;28;1149;-67
2022/10/03 06:35:44;;;;;;;;;;;;;;;13.71;73.14;95202.00;5093895;28;1151;-67
2022/10/03 06:38:22;;;;;;;;;;;;;;;13.67;72.80;95200.69;5093910;28;1905;-67
2022/10/03 06:40:57;;;;;;;;;;;;;;;13.70;74.03;95210.25;5093937;28;1695;-67
2022/10/03 06:43:24;;;;;;;;;;;;;;;13.66;72.45;95218.69;5093819;28;1091;-67
2022/10/03 06:46:03;;;;;;;;;;;;;;;13.57;73.21;95211.69;5093780;28;1498;-68
2022/10/03 06:48:41;;;;;;;;;;;;;;;13.69;72.54;95214.78;5093685;28;1045;-67
2022/10/03 06:51:14;;;;;;;;;;;;;;;13.74;71.99;95216.97;5092701;28;1625;-67
2022/10/03 06:53:56;;;;;;;;;;;;;;;13.76;71.45;95215.75;5075979;28;1607;-67
2022/10/03 06:56:22;;;;;;;;;;;;;;;13.86;71.66;95219.03;5093559;28;1033;-67
2022/10/03 06:59:10;;;;;;;;;;;;;;;13.94;71.82;95214.59;5092216;28;2005;-67
2022/10/03 07:01:39;;;;;;;;;;;;;;;13.93;72.56;95211.09;5093597;28;1044;-67
2022/10/03 07:04:17;;;;;;;;;;;;;;;14.05;71.54;95212.31;5092526;28;1487;-67
2022/10/03 07:06:47;;;;;;;;;;;;;;;14.20;72.68;95216.91;5118432;28;1541;-67
2022/10/03 07:09:17;;;;;;;;;;;;;;;14.08;72.91;95216.53;5113671;28;1210;-67
2022/10/03 07:12:05;;;;;;;;;;;;;;;14.15;73.24;95220.16;5113702;28;1099;-67
2022/10/03 07:14:51;;;;;;;;;;;;;;;14.17;72.45;95215.44;5115061;28;1104;-67
2022/10/03 07:17:37;;;;;;;;;;;;;;;14.29;73.29;95210.44;5117927;28;1057;-67
2022/10/03 07:20:07;;;;;;;;;;;;;;;14.43;70.64;95196.16;5100097;28;1464;-66
2022/10/03 07:22:52;;;;;;;;;;;;;;;14.69;72.39;95188.72;5117903;28;1033;-67
2022/10/03 07:25:25;;;;;;;;;;;;;;;14.70;73.00;95199.31;5117723;28;1113;-67
2022/10/03 07:28:04;;;;;;;;;;;;;;;14.72;73.60;95207.16;5117714;28;1111;-67
2022/10/03 07:30:49;;;;;;;;;;;;;;;14.73;72.49;95207.00;5117740;28;1040;-67
2022/10/03 07:33:21;;;;;;;;;;;;;;;14.86;71.15;95208.22;5117606;28;1032;-67
2022/10/03 07:38:57;;;;;;;;;;;;;;;14.89;71.95;95211.38;5117414;28;1997;-67
2022/10/03 07:41:30;;;;;;;;;;;;;;;14.97;72.33;95211.25;5116366;28;1024;-67
2022/10/03 07:44:16;;;;;;;;;;;;;;;14.98;72.80;95220.16;5117630;28;1091;-67
2022/10/03 07:47:03;;;;;;;;;;;;;;;14.94;72.53;95219.69;5117361;28;1079;-67
2022/10/03 07:49:29;;;;;;;;;;;;;;;14.87;72.15;95216.06;5117388;28;1068;-67
2022/10/03 07:52:14;;;;;;;;;;;;;;;14.87;72.16;95212.56;5115901;28;1620;-67
2022/10/03 07:54:44;;;;;;;;;;;;;;;14.92;71.58;95200.22;5116044;28;1053;-67
2022/10/03 07:57:11;;;;;;;;;;;;;;;14.88;72.91;95208.84;5117207;28;1036;-67
2022/10/03 07:59:46;;;;;;;;;;;;;;;14.94;71.29;95217.00;5116990;28;1988;-67
2022/10/03 08:02:19;;;;;;;;;;;;;;;14.96;72.52;95220.34;5117777;27;1660;-67
2022/10/03 08:04:52;;;;;;;;;;;;;;;14.94;72.32;95229.63;5098927;28;1526;-67
2022/10/03 08:07:27;;;;;;;;;;;;;;;14.86;73.14;95241.34;5117009;28;1258;-68
2022/10/03 08:10:16;;;;;;;;;;;;;;;14.73;74.23;95246.53;5117037;28;1088;-67
2022/10/03 08:12:53;;;;;;;;;;;;;;;14.63;74.24;95247.63;5116585;28;1549;-67
2022/10/03 08:15:35;;;;;;;;;;;;;;;14.56;73.63;95270.03;5116979;28;1044;-66
2022/10/03 08:18:21;;;;;;;;;;;;;;;14.55;73.66;95274.59;5115578;28;1932;-67
2022/10/03 08:20:54;;;;;;;;;;;;;;;14.49;74.43;95269.94;5116681;28;1101;-66
2022/10/03 08:23:23;;;;;;;;;;;;;;;14.40;73.81;95265.66;5116596;28;1575;-67
2022/10/03 08:25:59;;;;;;;;;;;;;;;14.41;74.07;95261.94;5115895;28;1044;-66
2022/10/03 08:28:34;;;;;;;;;;;;;;;14.44;73.79;95265.09;5116817;28;1039;-66
2022/10/03 08:31:01;;;;;;;;;;;;;;;14.50;73.78;95260.84;5115567;28;1506;-67
2022/10/03 08:33:40;;;;;;;;;;;;;;;14.44;74.04;95250.81;5116578;28;1045;-66
2022/10/03 08:36:26;;;;;;;;;;;;;;;14.50;73.66;95252.78;5116507;28;1234;-67
2022/10/03 08:39:12;;;;;;;;;;;;;;;14.62;74.80;95256.72;5116492;28;1920;-67
2022/10/03 08:41:56;;;;;;;;;;;;;;;14.64;72.93;95254.69;5116288;28;1112;-67
2022/10/03 08:44:41;;;;;;;;;;;;;;;14.73;74.77;95257.28;5116275;28;1037;-67
2022/10/03 08:47:30;;;;;;;;;;;;;;;14.76;72.56;95259.59;5116456;28;1490;-67
2022/10/03 08:50:12;;;;;;;;;;;;;;;14.83;74.37;95257.84;5116203;28;973;-67
2022/10/03 08:52:44;;;;;;;;;;;;;;;14.86;75.12;95260.19;5116088;28;960;-66
2022/10/03 08:55:29;;;;;;;;;;;;;;;14.83;73.42;95256.00;5116064;28;1048;-67
2022/10/03 08:57:59;;;;;;;;;;;;;;;14.86;74.00;95252.09;5116297;27;1902;-67
2022/10/03 09:00:43;;;;;;;;;;;;;;;14.87;75.28;95247.56;5115982;28;1037;-66
2022/10/03 09:03:30;;;;;;;;;;;;;;;14.87;76.17;95245.69;5116027;28;1040;-66
2022/10/03 09:05:57;;;;;;;;;;;;;;;14.93;76.87;95241.41;5110670;28;1496;-67
2022/10/03 09:08:38;;;;;;;;;;;;;;;14.99;76.47;95244.22;5093920;28;1515;-67
2022/10/03 09:11:21;;;;;;;;;;;;;;;15.12;76.32;95248.09;5095389;28;1038;-67
2022/10/03 09:14:02;;;;;;;;;;;;;;;15.24;76.01;95252.00;5095180;28;1875;-66
2022/10/03 09:16:41;;;;;;;;;;;;;;;15.28;76.07;95253.28;5095254;28;1057;-66
2022/10/03 09:19:40;;;;;;;;;;;;;;;15.31;76.08;95252.94;5093886;28;1900;-66
2022/10/03 09:22:15;;;;;;;;;;;;;;;15.34;76.34;95257.91;5094005;28;1556;-66
2022/10/03 09:25:01;;;;;;;;;;;;;;;15.49;75.09;95257.06;5094131;28;1678;-66
2022/10/03 09:27:50;;;;;;;;;;;;;;;15.60;73.96;95254.72;5095067;28;1052;-66
2022/10/03 09:30:31;;;;;;;;;;;;;;;15.78;74.55;95256.19;5093720;28;1683;-66
2022/10/03 09:32:58;;;;;;;;;;;;;;;15.83;74.78;95259.16;5093936;28;1605;-66
2022/10/03 09:35:24;;;;;;;;;;;;;;;15.97;74.20;95262.81;5093754;28;1127;-66
2022/10/03 09:38:10;;;;;;;;;;;;;;;16.07;73.54;95257.09;5093807;28;1913;-66
2022/10/03 09:41:03;;;;;;;;;;;;;;;16.08;73.84;95256.06;5093723;28;1444;-66
2022/10/03 09:43:38;;;;;;;;;;;;;;;16.18;73.41;95259.28;5094783;28;1065;-65
2022/10/03 09:46:11;;;;;;;;;;;;;;;16.23;73.72;95261.41;5093486;28;1625;-66
2022/10/03 09:48:49;;;;;;;;;;;;;;;16.22;73.69;95265.97;5094694;28;969;-66
2022/10/03 09:51:16;;;;;;;;;;;;;;;16.29;74.05;95257.94;5094639;28;1027;-66
2022/10/03 09:54:02;;;;;;;;;;;;;;;16.35;74.11;95249.06;5093527;28;1447;-67
2022/10/03 09:56:39;;;;;;;;;;;;;;;16.38;74.08;95256.78;5094719;28;969;-66
2022/10/03 09:59:38;;;;;;;;;;;;;;;16.46;73.71;95256.63;5094327;28;1905;-66
2022/10/03 10:02:23;;;;;;;;;;;;;;;16.49;73.30;95272.44;5092978;28;1157;-66
2022/10/03 10:04:52;;;;;;;;;;;;;;;16.51;73.31;95267.69;5094466;28;996;-66
2022/10/03 10:07:28;;;;;;;;;;;;;;;16.57;73.02;95274.97;5108536;28;1397;-67
2022/10/03 10:09:54;;;;;;;;;;;;;;;16.63;73.14;95264.44;5114641;28;1000;-67
2022/10/03 10:12:40;;;;;;;;;;;;;;;16.66;72.63;95264.91;5114579;28;1107;-66
2022/10/03 10:15:32;;;;;;;;;;;;;;;16.66;72.87;95259.50;5114661;28;1000;-66
2022/10/03 10:17:59;;;;;;;;;;;;;;;16.66;72.53;95261.38;5113190;28;1996;-66
2022/10/03 10:20:50;;;;;;;;;;;;;;;16.72;71.93;95261.41;5114370;28;1025;-66
2022/10/03 10:23:24;;;;;;;;;;;;;;;16.77;72.42;95269.75;5114451;28;1067;-66
2022/10/03 10:25:51;;;;;;;;;;;;;;;16.80;71.98;95263.13;5114487;28;1012;-65
2022/10/03 10:28:26;;;;;;;;;;;;;;;16.83;71.47;95265.47;5113371;28;1521;-65
2022/10/03 10:30:59;;;;;;;;;;;;;;;16.84;71.61;95260.88;5114151;28;1092;-66
2022/10/03 10:33:31;;;;;;;;;;;;;;;16.84;71.90;95259.00;5114530;28;961;-66
2022/10/03 10:36:30;;;;;;;;;;;;;;;16.89;71.73;95261.97;5113127;28;1036;-66
2022/10/03 10:39:29;;;;;;;;;;;;;;;16.94;70.75;95270.31;5101566;28;1979;-65
2022/10/03 10:42:13;;;;;;;;;;;;;;;17.02;71.14;95271.19;5101728;28;1442;-65
2022/10/03 10:44:59;;;;;;;;;;;;;;;17.13;70.83;95263.38;5113988;28;1049;-66
2022/10/03 10:47:37;;;;;;;;;;;;;;;17.27;70.45;95266.97;5112953;28;1022;-66
2022/10/03 10:50:19;;;;;;;;;;;;;;;17.51;70.45;95270.19;5113640;28;1077;-65
2022/10/03 10:53:05;;;;;;;;;;;;;;;17.56;70.50;95273.13;5113951;28;1029;-66
2022/10/03 10:55:34;;;;;;;;;;;;;;;17.64;70.56;95264.00;5112790;28;1105;-61
2022/10/03 10:58:19;;;;;;;;;;;;;;;17.69;70.11;95266.94;5113935;28;1914;-61
2022/10/03 11:04:19;;;;;;;;;;;;;;;17.72;69.21;95267.38;5113952;28;850;-61
2022/10/03 11:07:03;;;;;;;;;;;;;;;17.92;67.68;95262.03;5103811;28;1302;-61
2022/10/03 11:09:36;;;;;;;;;;;;;;;18.10;67.32;95264.19;5093358;28;1265;-61
2022/10/03 11:12:11;;;;;;;;;;;;;;;18.26;67.03;95267.53;5092211;28;1132;-61
2022/10/03 11:14:56;;;;;;;;;;;;;;;18.36;66.58;95259.00;5093410;28;1020;-61
2022/10/03 11:17:38;;;;;;;;;;;;;;;18.35;63.89;95260.88;5093635;28;1071;-61
2022/10/03 11:20:23;;;;;;;;;;;;;;;18.20;62.80;95258.38;5093267;28;1973;-61
2022/10/03 11:22:49;;;;;;;;;;;;;;;18.07;62.46;95259.16;5093429;28;1676;-61
2022/10/03 11:25:34;;;;;;;;;;;;;;;18.01;62.19;95262.69;5093218;28;1191;-61
2022/10/03 11:28:19;;;;;;;;;;;;;;;17.93;62.69;95260.19;5075609;28;1467;-61
2022/10/03 11:31:03;;;;;;;;;;;;;;;17.93;61.62;95257.50;5093156;28;1025;-61
2022/10/03 11:33:50;;;;;;;;;;;;;;;17.95;61.64;95261.66;5093156;28;1015;-61
2022/10/03 11:36:18;;;;;;;;;;;;;;;17.96;60.39;95276.00;5091958;28;1101;-61
2022/10/03 11:38:53;;;;;;;;;;;;;;;17.95;60.07;95277.88;5092965;28;1910;-61
2022/10/03 11:41:32;;;;;;;;;;;;;;;17.98;59.88;95262.28;5093153;28;1119;-63
2022/10/03 11:44:04;;;;;;;;;;;;;;;18.07;59.57;95271.88;5092888;28;1040;-61
2022/10/03 11:46:31;;;;;;;;;;;;;;;18.04;59.64;95267.72;5092950;28;1025;-58
2022/10/03 11:49:15;;;;;;;;;;;;;;;18.03;59.70;95270.63;5093214;28;987;-61
2022/10/03 11:52:05;;;;;;;;;;;;;;;18.04;60.53;95270.44;5092953;28;1099;-59
2022/10/03 11:54:36;;;;;;;;;;;;;;;18.00;59.87;95268.31;5091590;28;1153;-61
2022/10/03 11:57:08;;;;;;;;;;;;;;;17.87;57.56;95271.81;5092930;28;1041;-61
2022/10/03 11:59:34;;;;;;;;;;;;;;;17.82;58.10;95274.28;5091757;28;1898;-61
2022/10/03 12:02:01;;;;;;;;;;;;;;;17.72;56.90;95271.97;5094955;28;1124;-61
2022/10/03 12:04:30;;;;;;;;;;;;;;;17.71;58.41;95271.09;5095700;28;1517;-61
2022/10/03 12:09:57;;;;;;;;;;;;;;;17.68;58.39;95263.41;5117221;28;1042;-61
2022/10/03 12:12:27;;;;;;;;;;;;;;;17.56;57.61;95281.25;5115796;28;1123;-61
2022/10/03 12:14:55;;;;;;;;;;;;;;;17.50;58.22;95292.88;5116917;28;1120;-61
2022/10/03 12:17:31;;;;;;;;;;;;;;;17.47;58.61;95285.16;5116801;28;1061;-62
2022/10/03 12:20:04;;;;;;;;;;;;;;;17.41;58.06;95291.34;5116643;28;1906;-61
2022/10/03 12:22:30;;;;;;;;;;;;;;;17.29;58.72;95289.22;5116940;28;1028;-61
2022/10/03 12:25:15;;;;;;;;;;;;;;;17.22;59.62;95288.34;5116531;28;1116;-61
2022/10/03 12:28:00;;;;;;;;;;;;;;;17.16;59.73;95289.16;5115483;28;1019;-61
2022/10/03 12:30:31;;;;;;;;;;;;;;;17.13;61.35;95287.69;5115327;28;1665;-64
2022/10/03 12:33:13;;;;;;;;;;;;;;;17.11;61.38;95288.91;5116482;28;1107;-63
2022/10/03 12:35:50;;;;;;;;;;;;;;;17.10;60.79;95296.16;5098648;28;1420;-63
2022/10/03 12:38:17;;;;;;;;;;;;;;;17.09;59.77;95285.56;5116449;28;1914;-63
2022/10/03 12:40:50;;;;;;;;;;;;;;;17.07;59.52;95284.94;5115009;28;1709;-63
2022/10/03 12:43:56;;;;;;;;;;;;;;;17.02;59.78;95293.63;5116385;28;1100;-63
2022/10/03 12:46:22;;;;;;;;;;;;;;;17.10;60.17;95288.06;5076916;28;1380;-64
2022/10/03 12:49:14;;;;;;;;;;;;;;;17.16;59.47;95291.84;5093576;28;811;-63
2022/10/03 12:51:44;;;;;;;;;;;;;;;17.17;58.98;95290.81;5085748;28;1575;-63
2022/10/03 12:54:29;;;;;;;;;;;;;;;17.16;57.38;95291.84;5116101;28;1037;-64
2022/10/03 12:56:58;;;;;;;;;;;;;;;17.18;58.01;95287.06;5116022;28;1286;-64
2022/10/03 12:59:34;;;;;;;;;;;;;;;17.20;57.21;95284.19;5115830;28;1931;-64
2022/10/03 13:02:07;;;;;;;;;;;;;;;17.23;58.87;95279.22;5116179;28;973;-64
2022/10/03 13:04:37;;;;;;;;;;;;;;;17.35;58.30;95287.59;5115892;27;1092;-64
2022/10/03 13:07:12;;;;;;;;;;;;;;;17.48;58.38;95286.81;5104030;28;1299;-63
2022/10/03 13:09:57;;;;;;;;;;;;;;;17.54;58.39;95294.13;5094131;28;1032;-63
2022/10/03 13:12:30;;;;;;;;;;;;;;;17.62;56.87;95280.44;5095174;28;1021;-63
2022/10/03 13:15:15;;;;;;;;;;;;;;;17.67;56.16;95285.25;5095258;28;1044;-64
2022/10/03 13:17:48;;;;;;;;;;;;;;;17.68;55.58;95276.94;5095120;28;1048;-64
2022/10/03 13:20:22;;;;;;;;;;;;;;;17.65;54.98;95281.91;5095216;28;1099;-64
2022/10/03 13:22:59;;;;;;;;;;;;;;;17.58;55.07;95289.16;5094044;28;1056;-64
2022/10/03 13:25:34;;;;;;;;;;;;;;;17.59;55.23;95280.84;5095152;28;1056;-63
2022/10/03 13:28:08;;;;;;;;;;;;;;;17.61;54.56;95286.06;5095291;28;1646;-64
2022/10/03 13:30:45;;;;;;;;;;;;;;;17.62;54.74;95282.31;5095187;28;1519;-64
2022/10/03 13:33:15;;;;;;;;;;;;;;;17.64;55.10;95277.53;5095243;28;1020;-64
2022/10/03 13:35:57;;;;;;;;;;;;;;;17.69;55.89;95285.88;5093935;28;1517;-64
2022/10/03 13:38:38;;;;;;;;;;;;;;;17.71;55.16;95278.38;5094794;28;1902;-63
2022/10/03 13:41:05;;;;;;;;;;;;;;;17.68;55.07;95287.75;5094835;28;1019;-64
2022/10/03 13:43:36;;;;;;;;;;;;;;;17.64;55.28;95297.31;5093547;28;1025;-63
2022/10/03 13:46:25;;;;;;;;;;;;;;;17.61;55.55;95304.97;5094994;28;1037;-64
2022/10/03 13:48:57;;;;;;;;;;;;;;;17.54;55.69;95300.34;5094825;28;1020;-64
2022/10/03 13:51:48;;;;;;;;;;;;;;;17.54;55.07;95303.06;5094700;28;1012;-64
2022/10/03 13:54:20;;;;;;;;;;;;;;;17.52;55.51;95299.72;5094560;28;1104;-63
2022/10/03 13:56:49;;;;;;;;;;;;;;;17.44;56.20;95310.72;5093566;28;1016;-63
2022/10/03 13:59:37;;;;;;;;;;;;;;;17.40;56.21;95324.84;5093183;28;2036;-63
2022/10/03 14:02:09;;;;;;;;;;;;;;;17.31;54.32;95318.75;5094393;28;1016;-63
2022/10/03 14:04:54;;;;;;;;;;;;;;;17.22;53.90;95319.94;5093309;28;1598;-63
2022/10/03 14:07:28;;;;;;;;;;;;;;;17.20;54.07;95311.19;5108691;28;1252;-64